Time;durP1;ratioP1;P1;durP2;ratioP2;P2;SDS_P1;SDS_P2;PMS_P1;PMS_P2;Temp;Humidity;BMP_temperature;BMP_pressure;BME280_temperature;BME280_humidity;BME280_pressure;Samples;Min_cycle;Max_cycle;Signal;HPM_P1;HPM_P2
2021/04/13 02:45:41;;;;;;;10.75;7.05;;;3.40;99.90;;;;;;5890000;23;93800;31
2021/04/13 02:48:32;;;;;;;10.43;7.00;;;3.50;99.90;;;;;;4787359;29;93553;-87
2021/04/13 02:51:06;;;;;;;14.07;7.20;;;3.50;99.90;;;;;;4793745;29;92129;-87
2021/04/13 02:53:57;;;;;;;10.73;7.15;;;3.50;99.90;;;;;;4796202;29;92149;-86
2021/04/13 02:56:31;;;;;;;11.60;7.43;;;3.50;99.90;;;;;;4802295;29;93219;-86
2021/04/13 02:59:12;;;;;;;10.85;7.72;;;3.60;99.90;;;;;;4792716;29;92303;-87
2021/04/13 03:02:03;;;;;;;11.20;7.72;;;3.60;99.90;;;;;;4793662;29;92156;-87
2021/04/13 03:04:35;;;;;;;14.93;7.88;;;3.60;99.90;;;;;;4781711;29;92706;-86
2021/04/13 03:07:00;;;;;;;;;;;3.60;99.90;;;;;;4789638;29;92032;-88
2021/04/13 03:09:27;;;;;;;11.05;6.97;;;3.60;99.90;;;;;;4791891;29;92005;-88
2021/04/13 03:12:00;;;;;;;11.45;7.25;;;3.60;99.90;;;;;;4790984;29;91540;-86
2021/04/13 03:14:31;;;;;;;11.77;7.85;;;3.60;99.90;;;;;;4790454;29;93108;-88
2021/04/13 03:16:57;;;;;;;9.88;7.07;;;3.60;99.90;;;;;;4790699;29;92045;-87
2021/04/13 03:19:27;;;;;;;12.02;7.40;;;3.70;99.90;;;;;;4788071;29;96075;-88
2021/04/13 03:21:56;;;;;;;11.13;7.50;;;3.60;99.90;;;;;;4797995;29;92059;-85
2021/04/13 03:24:26;;;;;;;11.35;7.40;;;3.60;99.90;;;;;;4791121;29;92080;-85
2021/04/13 03:27:03;;;;;;;9.80;7.57;;;3.60;99.90;;;;;;4789371;29;91977;-87
2021/04/13 03:29:47;;;;;;;11.55;7.88;;;3.50;99.90;;;;;;4793780;29;93500;-85
2021/04/13 03:32:14;;;;;;;10.55;6.30;;;3.40;99.90;;;;;;4792477;29;91277;-85
2021/04/13 03:34:43;;;;;;;10.23;7.40;;;3.40;99.90;;;;;;4792103;29;91569;-85
2021/04/13 03:37:12;;;;;;;12.23;7.32;;;3.30;99.90;;;;;;4792199;29;92452;-87
2021/04/13 03:39:41;;;;;;;10.73;7.40;;;3.30;99.90;;;;;;4780703;29;95990;-86
2021/04/13 03:42:28;;;;;;;11.00;7.18;;;3.20;99.90;;;;;;4798672;29;91702;-86
2021/04/13 03:44:56;;;;;;;13.60;7.63;;;3.10;99.90;;;;;;4798310;29;91975;-86
2021/04/13 03:47:29;;;;;;;10.68;7.32;;;3.10;99.90;;;;;;4787793;29;94562;-87
2021/04/13 03:49:57;;;;;;;12.20;7.90;;;3.10;99.90;;;;;;4804047;29;92525;-91
2021/04/13 03:52:29;;;;;;;10.30;7.47;;;3.00;99.90;;;;;;4811200;29;91988;-90
2021/04/13 03:54:56;;;;;;;10.45;6.93;;;3.00;99.90;;;;;;4811092;29;91870;-91
2021/04/13 03:57:33;;;;;;;10.13;6.43;;;3.00;99.90;;;;;;4795185;29;95083;-90
2021/04/13 04:00:23;;;;;;;12.05;7.18;;;2.90;99.90;;;;;;4795181;29;94411;-89
2021/04/13 04:02:49;;;;;;;11.07;7.30;;;2.90;99.90;;;;;;4811870;29;91782;-89
2021/04/13 04:05:18;;;;;;;12.40;7.00;;;2.90;99.90;;;;;;4811232;29;92257;-89
2021/04/13 04:08:02;;;;;;;13.00;7.22;;;2.90;99.90;;;;;;4810383;29;92946;-88
2021/04/13 04:10:34;;;;;;;16.90;8.77;;;2.90;99.90;;;;;;4804400;29;92564;-90
2021/04/13 04:13:06;;;;;;;11.45;7.35;;;2.80;99.90;;;;;;4788776;29;92179;-89
2021/04/13 04:15:41;;;;;;;14.40;7.57;;;2.90;99.90;;;;;;4792334;29;92347;-89
2021/04/13 04:18:25;;;;;;;15.40;8.07;;;2.70;99.90;;;;;;4805337;29;95426;-90
2021/04/13 04:20:51;;;;;;;13.23;7.63;;;;;;;;;;4803028;29;92508;-90
2021/04/13 04:23:22;;;;;;;12.45;7.82;;;2.50;99.90;;;;;;4811611;29;90951;-90
2021/04/13 04:25:50;;;;;;;;;;;2.50;99.90;;;;;;4804702;29;92030;-89
2021/04/13 04:28:23;;;;;;;12.05;7.63;;;2.40;99.90;;;;;;4811951;29;91878;-89
2021/04/13 04:30:49;;;;;;;11.30;7.40;;;2.40;99.90;;;;;;4810767;29;92965;-89
2021/04/13 04:34:11;;;;;;;17.05;8.32;;;2.20;99.90;;;;;;4811682;29;91901;-90
2021/04/13 04:40:25;;;;;;;15.45;8.07;;;2.10;99.90;;;;;;4807493;29;91871;-88
2021/04/13 04:42:53;;;;;;;16.42;8.75;;;2.10;99.90;;;;;;4809519;29;91962;-88
2021/04/13 04:45:41;;;;;;;18.67;10.25;;;2.10;99.90;;;;;;4808419;29;92026;-87
2021/04/13 04:48:26;;;;;;;17.00;9.38;;;2.20;99.90;;;;;;4802487;29;92737;-88
2021/04/13 04:50:55;;;;;;;21.35;9.88;;;2.10;99.90;;;;;;4786224;29;95732;-89
2021/04/13 04:53:21;;;;;;;17.35;10.05;;;2.20;99.90;;;;;;4812313;29;92061;-89
2021/04/13 04:55:49;;;;;;;18.90;10.10;;;2.20;99.90;;;;;;4789968;29;91813;-92
2021/04/13 04:58:15;;;;;;;14.75;9.23;;;;;;;;;;4807638;29;93041;-89
2021/04/13 05:00:41;;;;;;;15.88;9.48;;;;;;;;;;4808660;29;95668;-87
2021/04/13 05:03:07;;;;;;;15.75;9.88;;;2.20;99.90;;;;;;4794793;29;96722;-84
2021/04/13 05:05:33;;;;;;;15.48;9.48;;;;;;;;;;4794988;29;91975;-88
2021/04/13 05:07:59;;;;;;;15.18;8.48;;;2.10;99.90;;;;;;4811696;29;92188;-86
2021/04/13 05:10:24;;;;;;;13.75;8.73;;;2.10;99.90;;;;;;4812895;29;92736;-87
2021/04/13 05:12:50;;;;;;;14.07;9.77;;;2.10;99.90;;;;;;4808659;29;95346;-88
2021/04/13 05:15:16;;;;;;;15.20;9.23;;;2.10;99.90;;;;;;4809299;29;91422;-88
2021/04/13 05:17:41;;;;;;;12.75;7.97;;;2.10;99.90;;;;;;4808527;29;92045;-87
2021/04/13 05:20:08;;;;;;;14.45;8.73;;;2.20;99.90;;;;;;4790294;29;96168;-86
2021/04/13 05:22:34;;;;;;;14.48;8.35;;;2.30;99.90;;;;;;4810872;29;92959;-87
2021/04/13 05:25:00;;;;;;;14.27;8.77;;;2.40;99.90;;;;;;4808593;29;91720;-85
2021/04/13 05:27:26;;;;;;;16.08;8.23;;;2.60;99.90;;;;;;4808655;29;91855;-87
2021/04/13 05:29:51;;;;;;;12.18;8.15;;;2.70;99.90;;;;;;4785738;29;96893;-86
2021/04/13 05:32:17;;;;;;;12.98;7.88;;;2.80;99.90;;;;;;4800181;29;92240;-87
2021/04/13 05:34:43;;;;;;;17.23;9.02;;;;;;;;;;4801296;29;91906;-86
2021/04/13 05:37:10;;;;;;;11.45;7.97;;;3.10;99.90;;;;;;4814377;29;92094;-87
2021/04/13 05:39:36;;;;;;;13.40;8.13;;;3.10;99.90;;;;;;4813092;29;92033;-87
2021/04/13 05:42:02;;;;;;;12.73;8.52;;;3.10;99.90;;;;;;4807023;29;92094;-87
2021/04/13 05:44:28;;;;;;;15.32;7.97;;;3.20;99.90;;;;;;4811547;29;91932;-87
2021/04/13 05:46:54;;;;;;;19.88;15.80;;;3.20;99.90;;;;;;4805365;29;93084;-87
2021/04/13 05:49:20;;;;;;;16.90;11.13;;;3.20;99.90;;;;;;4812351;29;92135;-87
2021/04/13 05:51:46;;;;;;;12.40;8.93;;;;;;;;;;4815461;29;92633;-87
2021/04/13 05:54:12;;;;;;;11.93;8.13;;;3.30;99.90;;;;;;4807056;29;92179;-87
2021/04/13 05:56:41;;;;;;;14.55;8.75;;;3.30;99.90;;;;;;4810479;29;92140;-87
2021/04/13 05:59:09;;;;;;;16.52;8.57;;;3.40;99.90;;;;;;4810142;29;92092;-87
2021/04/13 06:01:36;;;;;;;14.45;8.32;;;3.40;99.90;;;;;;4804934;29;92918;-87
2021/04/13 06:04:03;;;;;;;13.02;7.53;;;3.50;99.90;;;;;;4815291;29;90981;-87
2021/04/13 06:06:29;;;;;;;11.45;7.28;;;3.50;99.90;;;;;;4808946;29;92169;-87
2021/04/13 06:08:55;;;;;;;13.57;7.60;;;3.60;99.90;;;;;;4808657;29;92442;-88
2021/04/13 06:11:29;;;;;;;10.98;7.10;;;3.70;99.90;;;;;;4807462;29;93599;-87
2021/04/13 06:13:58;;;;;;;12.38;7.43;;;3.70;99.90;;;;;;4810348;29;92143;-87
2021/04/13 06:16:28;;;;;;;12.10;7.72;;;3.70;99.90;;;;;;4808528;29;91901;-87
2021/04/13 06:18:54;;;;;;;10.25;6.60;;;3.80;99.90;;;;;;4809996;29;93371;-87
2021/04/13 06:21:19;;;;;;;11.38;6.97;;;3.90;99.90;;;;;;4808575;29;93082;-87
2021/04/13 06:23:45;;;;;;;10.18;6.90;;;4.10;99.90;;;;;;4808319;29;92005;-87
2021/04/13 06:26:11;;;;;;;11.23;7.25;;;4.30;99.90;;;;;;4812110;29;91963;-87
2021/04/13 06:28:37;;;;;;;10.23;6.95;;;4.30;99.90;;;;;;4811370;29;91684;-87
2021/04/13 06:31:03;;;;;;;11.23;7.07;;;4.50;99.90;;;;;;4809223;29;95371;-87
2021/04/13 06:33:29;;;;;;;11.45;6.75;;;4.50;99.90;;;;;;4810239;29;92028;-87
2021/04/13 06:35:59;;;;;;;8.43;6.30;;;4.70;99.90;;;;;;4813647;29;92969;-87
2021/04/13 06:38:26;;;;;;;10.48;6.25;;;4.80;99.90;;;;;;4809223;29;92786;-87
2021/04/13 06:41:26;;;;;;;10.48;6.40;;;5.00;99.90;;;;;;4813792;29;95523;-87
2021/04/13 06:44:10;;;;;;;9.20;6.32;;;5.20;99.90;;;;;;4821104;29;92022;-87
2021/04/13 06:46:58;;;;;;;8.82;6.10;;;5.40;99.90;;;;;;4809902;29;92149;-87
2021/04/13 06:50:00;;;;;;;8.77;5.80;;;5.50;99.90;;;;;;4809848;29;92725;-87
2021/04/13 06:53:03;;;;;;;9.15;6.32;;;5.60;99.90;;;;;;4811328;29;95272;-87
2021/04/13 06:55:50;;;;;;;8.70;6.28;;;5.80;99.90;;;;;;4810603;29;91159;-87
2021/04/13 06:58:50;;;;;;;10.13;5.78;;;5.90;99.90;;;;;;4813896;29;91637;-87
2021/04/13 07:01:21;;;;;;;7.13;5.75;;;6.40;99.90;;;;;;4812503;29;92774;-85
2021/04/13 07:04:13;;;;;;;;;;;6.40;99.90;;;;;;4818311;29;93401;-87
2021/04/13 07:06:44;;;;;;;9.57;6.40;;;6.60;99.90;;;;;;4775301;29;91486;-86
2021/04/13 07:09:24;;;;;;;10.23;6.20;;;7.30;99.90;;;;;;4809768;29;92104;-85
2021/04/13 07:12:05;;;;;;;10.07;7.25;;;8.70;99.90;;;;;;4807725;29;92080;-86
2021/04/13 07:14:57;;;;;;;9.93;6.97;;;10.40;95.80;;;;;;4817254;29;93016;-86
2021/04/13 07:17:34;;;;;;;8.57;6.50;;;11.10;92.50;;;;;;4814326;29;92087;-86
2021/04/13 07:20:13;;;;;;;11.73;7.45;;;11.00;88.40;;;;;;4808065;29;92141;-85
2021/04/13 07:22:49;;;;;;;8.98;7.00;;;10.60;90.40;;;;;;4809134;29;92253;-85
2021/04/13 07:25:37;;;;;;;10.07;6.80;;;10.10;92.50;;;;;;4794188;29;92028;-86
2021/04/13 07:28:12;;;;;;;10.65;7.80;;;9.90;93.20;;;;;;4809799;29;91917;-85
2021/04/13 07:30:40;;;;;;;9.00;7.38;;;9.60;94.00;;;;;;4812272;29;92564;-86
2021/04/13 07:33:10;;;;;;;10.98;7.82;;;9.10;95.60;;;;;;4815337;29;96701;-86
2021/04/13 07:35:38;;;;;;;11.82;8.23;;;8.60;96.10;;;;;;4818423;29;92145;-85
2021/04/13 07:38:27;;;;;;;10.88;8.05;;;7.90;98.60;;;;;;4817991;29;92208;-86
2021/04/13 07:41:01;;;;;;;12.20;8.25;;;7.60;99.90;;;;;;4797261;29;92108;-86
2021/04/13 07:43:39;;;;;;;14.35;8.35;;;8.00;99.90;;;;;;4814035;29;92253;-85
2021/04/13 07:46:46;;;;;;;11.65;8.25;;;9.00;99.90;;;;;;4830444;29;92165;-86
2021/04/13 07:49:31;;;;;;;12.38;8.52;;;9.70;96.40;;;;;;4811254;29;91228;-85
2021/04/13 07:52:09;;;;;;;10.50;8.52;;;10.90;93.60;;;;;;4808507;29;92293;-85
2021/04/13 07:54:53;;;;;;;10.02;8.30;;;12.60;90.80;;;;;;4814451;29;91998;-86
2021/04/13 07:57:42;;;;;;;9.82;8.20;;;13.60;84.50;;;;;;4816109;29;93030;-86
2021/04/13 08:00:13;;;;;;;12.50;8.68;;;14.50;76.10;;;;;;4818050;29;92068;-86
2021/04/13 08:02:40;;;;;;;;;;;14.40;70.40;;;;;;4812769;29;92021;-87
2021/04/13 08:05:08;;;;;;;12.00;8.35;;;15.00;67.70;;;;;;4818756;29;93173;-86
2021/04/13 08:07:42;;;;;;;10.75;8.45;;;15.70;63.30;;;;;;4809880;29;93850;-86
2021/04/13 08:10:26;;;;;;;9.27;7.93;;;16.80;59.20;;;;;;4814203;29;91994;-87
2021/04/13 08:12:52;;;;;;;10.70;8.40;;;18.40;56.00;;;;;;4803952;29;92193;-87
2021/04/13 08:15:39;;;;;;;10.18;8.18;;;18.30;50.90;;;;;;4810179;29;91500;-87
2021/04/13 08:18:40;;;;;;;12.38;9.48;;;16.70;52.90;;;;;;4808209;29;94800;-88
2021/04/13 08:21:21;;;;;;;10.82;8.32;;;15.20;54.60;;;;;;4768004;29;92297;-89
2021/04/13 08:23:48;;;;;;;;;;;15.20;57.80;;;;;;4811174;29;93012;-89
2021/04/13 08:26:26;;;;;;;12.38;7.90;;;16.60;57.20;;;;;;4808499;29;92075;-89
2021/04/13 08:29:13;;;;;;;9.80;7.97;;;17.40;52.30;;;;;;4811445;29;95778;-89
2021/04/13 08:35:01;;;;;;;9.85;6.82;;;21.10;46.10;;;;;;4783825;29;92098;-89
2021/04/13 08:37:50;;;;;;;8.48;7.15;;;23.70;41.20;;;;;;4807558;29;92226;-90
2021/04/13 08:40:32;;;;;;;8.80;7.20;;;25.30;37.60;;;;;;4808975;29;92782;-90
2021/04/13 08:43:11;;;;;;;7.95;7.05;;;24.90;36.00;;;;;;4804459;29;91279;-91
2021/04/13 08:45:41;;;;;;;8.98;7.63;;;26.40;35.60;;;;;;4809519;29;92022;-88
2021/04/13 08:48:30;;;;;;;8.93;7.60;;;26.10;34.60;;;;;;4811772;29;91980;-90
2021/04/13 08:51:12;;;;;;;8.43;6.78;;;24.40;35.10;;;;;;4806767;29;93116;-90
2021/04/13 08:53:44;;;;;;;7.65;6.70;;;24.70;33.70;;;;;;4807742;29;91776;-90
2021/04/13 08:56:20;;;;;;;8.90;7.82;;;25.90;34.60;;;;;;4808603;29;92117;-91
2021/04/13 08:58:50;;;;;;;8.30;7.43;;;27.20;34.40;;;;;;4801902;29;95839;-90
2021/04/13 09:01:38;;;;;;;7.45;6.75;;;28.60;30.90;;;;;;4810742;29;92644;-91
2021/04/13 09:04:28;;;;;;;6.93;6.20;;;30.20;29.70;;;;;;4808950;29;91900;-88
2021/04/13 09:07:01;;;;;;;7.53;6.15;;;30.40;28.10;;;;;;4801551;29;92018;-90
2021/04/13 09:09:27;;;;;;;10.15;9.25;;;;;;;;;;4809649;29;91892;-92
2021/04/13 09:11:58;;;;;;;7.85;7.05;;;31.00;28.70;;;;;;4806564;29;92753;-91
2021/04/13 09:14:50;;;;;;;7.63;6.82;;;32.10;28.30;;;;;;4810513;29;92013;-91
2021/04/13 09:17:21;;;;;;;8.18;7.38;;;32.70;27.80;;;;;;4807177;29;92928;-89
2021/04/13 09:20:13;;;;;;;7.10;5.95;;;33.30;28.00;;;;;;4806872;29;92648;-88
2021/04/13 09:22:55;;;;;;;6.65;6.05;;;33.10;26.60;;;;;;4801677;29;92801;-89
2021/04/13 09:26:01;;;;;;;6.82;6.10;;;33.70;26.30;;;;;;4812744;29;91783;-89
2021/04/13 09:28:49;;;;;;;7.72;6.53;;;35.00;25.40;;;;;;4809133;29;92397;-89
2021/04/13 09:31:28;;;;;;;6.13;5.63;;;34.90;25.70;;;;;;4803149;29;91979;-87
2021/04/13 09:34:09;;;;;;;7.72;6.95;;;35.90;24.70;;;;;;4815258;29;93279;-88
2021/04/13 09:36:45;;;;;;;7.25;6.53;;;35.90;25.00;;;;;;4815869;29;91195;-89
2021/04/13 09:39:31;;;;;;;9.13;8.32;;;35.80;25.40;;;;;;4812738;29;92165;-90
2021/04/13 09:42:16;;;;;;;10.43;9.57;;;36.30;25.10;;;;;;4811242;29;92745;-89
2021/04/13 09:44:53;;;;;;;9.98;9.23;;;36.20;25.40;;;;;;4811088;29;92863;-89
2021/04/13 09:47:56;;;;;;;9.10;8.40;;;36.10;24.70;;;;;;4803700;29;91817;-89
2021/04/13 09:50:22;;;;;;;8.13;7.43;;;35.90;24.90;;;;;;4829438;29;91928;-89
2021/04/13 09:53:08;;;;;;;8.63;7.93;;;35.30;24.10;;;;;;4821263;29;92234;-90
2021/04/13 09:56:04;;;;;;;8.45;7.75;;;35.30;24.40;;;;;;4812766;29;92448;-89
2021/04/13 09:59:04;;;;;;;8.75;8.05;;;35.50;24.00;;;;;;4811730;29;91486;-90
2021/04/13 10:01:57;;;;;;;8.07;7.38;;;36.00;24.00;;;;;;4794578;29;92094;-89
2021/04/13 10:04:53;;;;;;;7.55;6.97;;;34.40;24.00;;;;;;4811797;29;91208;-89
2021/04/13 10:08:15;;;;;;;9.15;8.45;;;34.10;24.10;;;;;;4800596;29;91564;-89
2021/04/13 10:11:22;;;;;;;9.30;8.38;;;31.70;25.40;;;;;;4756882;29;92465;-88
2021/04/13 10:14:16;;;;;;;9.75;8.85;;;29.30;26.80;;;;;;4736426;29;93004;-88
2021/04/13 10:17:22;;;;;;;8.20;7.32;;;27.80;28.10;;;;;;4758140;29;93538;-91
2021/04/13 10:20:25;;;;;;;9.32;8.52;;;31.10;26.50;;;;;;4743034;29;94253;-91
2021/04/13 10:26:13;;;;;;;8.63;7.93;;;31.60;24.50;;;;;;4755552;29;91985;-92
2021/04/13 10:29:01;;;;;;;7.95;7.13;;;31.40;25.20;;;;;;4756511;29;95133;-93
2021/04/13 10:32:00;;;;;;;9.02;8.27;;;31.20;26.00;;;;;;4772949;29;93777;-90
2021/04/13 10:34:58;;;;;;;8.27;7.47;;;29.00;25.80;;;;;;4784401;29;91255;-93
2021/04/13 10:37:49;;;;;;;7.80;7.10;;;27.80;26.90;;;;;;4814361;29;92248;-88
2021/04/13 10:40:39;;;;;;;6.78;6.18;;;27.40;27.20;;;;;;4815247;29;92749;-91
2021/04/13 10:43:12;;;;;;;7.72;7.13;;;;;;;;;;4815577;29;92789;-91
2021/04/13 10:45:57;;;;;;;5.70;5.20;;;28.50;26.40;;;;;;4793761;29;91902;-90
2021/04/13 10:48:42;;;;;;;7.35;6.75;;;28.80;26.30;;;;;;4792542;29;92451;-86
2021/04/13 10:51:11;;;;;;;7.07;6.47;;;27.30;25.90;;;;;;4785265;29;92737;-89
2021/04/13 10:53:55;;;;;;;6.40;5.80;;;25.80;28.10;;;;;;4785701;29;92478;-88
2021/04/13 10:56:39;;;;;;;7.13;6.45;;;24.30;28.30;;;;;;4791433;29;91848;-85
2021/04/13 10:59:37;;;;;;;6.53;5.93;;;22.50;30.60;;;;;;4776242;29;92105;-86
2021/04/13 11:02:25;;;;;;;6.60;6.10;;;21.20;31.80;;;;;;4790395;29;96783;-86
2021/04/13 11:05:18;;;;;;;7.13;5.97;;;20.20;32.70;;;;;;4787395;29;92166;-83
2021/04/13 11:08:14;;;;;;;6.65;5.97;;;19.70;33.80;;;;;;4798140;29;92004;-88
2021/04/13 11:10:58;;;;;;;7.35;6.65;;;19.10;34.00;;;;;;4793640;29;92271;-88
2021/04/13 11:13:36;;;;;;;7.18;6.25;;;18.50;35.00;;;;;;4800659;29;91986;-86
2021/04/13 11:16:30;;;;;;;7.22;6.53;;;18.60;35.70;;;;;;4797561;29;92528;-85
2021/04/13 11:19:46;;;;;;;6.40;5.80;;;18.70;34.70;;;;;;4792680;29;91938;-84
2021/04/13 11:22:30;;;;;;;5.55;5.05;;;19.30;33.80;;;;;;4791835;29;93575;-85
2021/04/13 11:25:21;;;;;;;6.55;5.97;;;20.40;33.30;;;;;;4798860;29;92061;-84
2021/04/13 11:28:08;;;;;;;6.57;5.97;;;22.60;32.00;;;;;;4797080;29;92003;-85
2021/04/13 11:30:58;;;;;;;6.57;5.88;;;24.40;29.90;;;;;;4793621;29;91272;-84
2021/04/13 11:33:27;;;;;;;6.45;5.95;;;23.60;29.60;;;;;;4775600;29;92408;-84
2021/04/13 11:36:05;;;;;;;6.68;6.07;;;22.50;30.60;;;;;;4787527;29;91655;-84
2021/04/13 11:39:00;;;;;;;6.10;5.53;;;21.50;30.50;;;;;;4788551;29;92458;-84
2021/04/13 11:42:07;;;;;;;6.05;5.45;;;21.70;30.40;;;;;;4789303;29;92150;-87
2021/04/13 11:44:44;;;;;;;5.70;5.20;;;21.80;29.10;;;;;;4793245;29;92101;-89
2021/04/13 11:47:31;;;;;;;6.28;5.78;;;21.80;29.70;;;;;;4805176;29;92699;-90
2021/04/13 11:50:03;;;;;;;6.47;5.97;;;22.30;29.40;;;;;;4805816;29;92071;-87
2021/04/13 11:52:31;;;;;;;5.68;5.05;;;22.10;30.00;;;;;;4800498;29;91787;-87
2021/04/13 11:54:57;;;;;;;6.63;5.88;;;21.80;30.60;;;;;;4812644;29;92481;-87
2021/04/13 11:57:30;;;;;;;6.13;5.53;;;22.10;31.00;;;;;;4809933;29;93308;-87
2021/04/13 12:00:11;;;;;;;4.80;4.28;;;23.40;28.80;;;;;;4799899;29;92178;-88
2021/04/13 12:02:43;;;;;;;6.75;6.25;;;25.30;27.30;;;;;;4808814;29;92167;-89
2021/04/13 12:05:24;;;;;;;6.43;5.80;;;26.70;25.50;;;;;;4811159;29;92892;-88
2021/04/13 12:07:50;;;;;;;5.63;4.40;;;27.20;25.80;;;;;;4805412;29;92856;-88
2021/04/13 12:10:31;;;;;;;6.10;5.03;;;28.80;25.90;;;;;;4804140;29;92776;-88
2021/04/13 12:13:10;;;;;;;5.72;5.13;;;30.20;25.10;;;;;;4811580;29;91918;-89
2021/04/13 12:15:38;;;;;;;6.80;6.22;;;30.90;25.20;;;;;;4809376;29;91937;-89
2021/04/13 12:18:36;;;;;;;6.18;5.25;;;31.70;23.70;;;;;;4797481;29;91972;-89
2021/04/13 12:21:23;;;;;;;6.53;6.07;;;31.40;23.10;;;;;;4810936;29;92094;-88
2021/04/13 12:24:03;;;;;;;6.35;5.95;;;32.00;23.30;;;;;;4809462;29;91379;-87
2021/04/13 12:26:43;;;;;;;6.55;6.15;;;32.00;23.30;;;;;;4796391;29;91997;-89
2021/04/13 12:29:33;;;;;;;7.18;6.47;;;32.20;24.00;;;;;;4810351;29;92491;-89
2021/04/13 12:32:11;;;;;;;;;;;29.60;26.90;;;;;;4810376;29;93007;-88
2021/04/13 12:34:52;;;;;;;6.32;5.82;;;26.70;27.90;;;;;;4817985;29;91961;-87
2021/04/13 12:37:44;;;;;;;6.82;6.22;;;23.20;31.50;;;;;;4819915;29;92132;-88
2021/04/13 12:40:18;;;;;;;6.63;6.13;;;22.60;31.40;;;;;;4809255;29;92778;-88
2021/04/13 12:42:53;;;;;;;6.55;6.05;;;22.00;33.70;;;;;;4809279;29;92497;-87
2021/04/13 12:45:18;;;;;;;6.45;5.97;;;21.50;34.50;;;;;;4806588;29;92265;-89
2021/04/13 12:47:46;;;;;;;6.60;6.00;;;21.50;35.40;;;;;;4807659;29;92099;-88
2021/04/13 12:50:22;;;;;;;6.40;5.90;;;21.20;35.10;;;;;;4810092;29;91686;-88
2021/04/13 12:52:48;;;;;;;7.18;6.57;;;20.20;36.00;;;;;;4808142;29;92144;-87
2021/04/13 12:55:16;;;;;;;5.60;5.10;;;18.50;38.70;;;;;;4799072;29;92019;-88
2021/04/13 12:57:57;;;;;;;6.25;5.75;;;17.10;42.40;;;;;;4802683;29;93333;-86
2021/04/13 13:00:30;;;;;;;6.32;5.72;;;16.40;43.50;;;;;;4803134;29;94057;-87
2021/04/13 13:03:19;;;;;;;6.75;6.15;;;15.00;48.10;;;;;;4807114;29;93094;-87
2021/04/13 13:05:46;;;;;;;7.25;6.60;;;14.40;48.70;;;;;;4804566;29;91953;-86
2021/04/13 13:08:22;;;;;;;7.95;6.45;;;13.90;49.30;;;;;;4799414;29;92226;-87
2021/04/13 13:10:50;;;;;;;6.53;5.93;;;13.40;49.30;;;;;;4780361;29;93617;-87
2021/04/13 13:13:25;;;;;;;6.32;5.72;;;13.00;50.40;;;;;;4804266;29;95357;-88
2021/04/13 13:15:53;;;;;;;7.68;6.97;;;12.60;50.80;;;;;;4801375;29;90945;-89
2021/04/13 13:18:30;;;;;;;7.25;6.55;;;12.20;51.40;;;;;;4798635;29;91350;-86
2021/04/13 13:21:00;;;;;;;7.60;6.90;;;11.60;54.60;;;;;;4791645;29;94411;-86
2021/04/13 13:23:36;;;;;;;7.97;7.28;;;11.40;54.90;;;;;;4789011;29;94112;-86
2021/04/13 13:26:28;;;;;;;7.47;6.70;;;12.10;53.20;;;;;;4812825;29;92018;-87
2021/04/13 13:28:53;;;;;;;6.47;5.88;;;12.30;53.70;;;;;;4802548;29;92176;-88
2021/04/13 13:31:37;;;;;;;6.72;6.13;;;13.60;51.50;;;;;;4785755;29;93837;-87
2021/04/13 13:34:13;;;;;;;7.20;6.57;;;14.10;48.10;;;;;;4812275;29;91923;-87
2021/04/13 13:36:41;;;;;;;7.45;6.75;;;15.30;47.50;;;;;;4819662;29;92066;-88
2021/04/13 13:39:15;;;;;;;6.75;6.13;;;15.20;47.70;;;;;;4828104;29;91750;-89
2021/04/13 13:41:44;;;;;;;6.75;5.25;;;16.60;45.20;;;;;;4822754;29;92127;-88
2021/04/13 13:44:22;;;;;;;7.80;6.97;;;16.70;41.80;;;;;;4818285;29;91735;-88
2021/04/13 13:47:06;;;;;;;5.40;4.90;;;16.80;41.90;;;;;;4823014;29;91841;-89
2021/04/13 13:49:45;;;;;;;7.78;6.75;;;16.00;42.40;;;;;;4813734;29;92521;-90
2021/04/13 13:52:35;;;;;;;7.38;5.10;;;16.20;42.80;;;;;;4815080;29;92750;-88
2021/04/13 13:55:13;;;;;;;6.95;6.35;;;16.50;40.60;;;;;;4798152;29;95315;-90
2021/04/13 13:57:39;;;;;;;6.05;5.57;;;16.60;40.60;;;;;;4825023;29;91879;-88
2021/04/13 14:00:09;;;;;;;5.32;4.82;;;16.90;41.30;;;;;;4819411;29;91857;-87
2021/04/13 14:02:36;;;;;;;6.60;5.93;;;17.50;37.00;;;;;;4804510;29;91424;-87
2021/04/13 14:05:23;;;;;;;6.20;5.70;;;17.60;37.50;;;;;;4816900;29;91338;-87
2021/04/13 14:07:50;;;;;;;4.70;4.20;;;17.70;37.50;;;;;;4818616;29;90905;-89
2021/04/13 14:10:28;;;;;;;5.85;5.40;;;18.30;37.20;;;;;;4831450;29;91335;-88
2021/04/13 14:13:06;;;;;;;4.72;4.30;;;18.40;37.50;;;;;;4832471;29;91725;-88
2021/04/13 14:15:35;;;;;;;6.13;5.55;;;19.10;35.20;;;;;;4827740;29;92708;-88
2021/04/13 14:18:05;;;;;;;5.72;5.28;;;19.50;34.30;;;;;;4817120;29;91962;-88
2021/04/13 14:20:31;;;;;;;6.38;5.97;;;19.40;34.00;;;;;;4815515;29;91978;-88
2021/04/13 14:23:10;;;;;;;6.65;6.15;;;19.10;33.60;;;;;;4812518;29;93191;-88
2021/04/13 14:25:38;;;;;;;6.75;6.25;;;18.80;31.50;;;;;;4812830;29;91906;-88
2021/04/13 14:28:32;;;;;;;5.70;5.28;;;19.20;32.20;;;;;;4813358;29;91956;-89
2021/04/13 14:30:58;;;;;;;5.20;4.68;;;19.20;32.40;;;;;;4789966;29;91947;-88
2021/04/13 14:33:24;;;;;;;5.03;4.53;;;19.20;32.80;;;;;;4808043;29;92034;-89
2021/04/13 14:35:50;;;;;;;5.82;5.32;;;18.80;31.90;;;;;;4812624;29;91855;-89
2021/04/13 14:38:22;;;;;;;4.25;3.92;;;18.80;32.40;;;;;;4807794;29;91931;-89
2021/04/13 14:40:49;;;;;;;4.55;4.18;;;19.30;30.90;;;;;;4811868;29;92960;-87
2021/04/13 14:43:15;;;;;;;6.60;5.03;;;19.60;31.60;;;;;;4811333;29;91952;-89
2021/04/13 14:45:41;;;;;;;6.10;5.38;;;19.10;35.20;;;;;;4810754;29;92199;-88
2021/04/13 14:48:14;;;;;;;5.45;4.95;;;17.20;39.80;;;;;;4813078;29;91886;-89
2021/04/13 14:50:46;;;;;;;5.22;4.72;;;16.60;41.40;;;;;;4813215;29;92021;-89
2021/04/13 14:53:14;;;;;;;6.68;6.18;;;17.60;40.50;;;;;;4812025;29;93664;-89
2021/04/13 14:55:41;;;;;;;6.65;6.15;;;16.20;38.50;;;;;;4814613;29;92067;-89
2021/04/13 14:58:13;;;;;;;6.20;4.57;;;16.60;38.80;;;;;;4814263;29;91229;-88
2021/04/13 15:00:39;;;;;;;5.82;4.70;;;15.40;40.10;;;;;;4814291;29;92164;-88
2021/04/13 15:03:08;;;;;;;5.72;5.18;;;13.50;43.80;;;;;;4794243;29;94053;-88
2021/04/13 15:05:35;;;;;;;5.78;5.20;;;13.00;43.60;;;;;;4805808;29;94256;-88
2021/04/13 15:08:02;;;;;;;6.18;5.30;;;12.90;43.70;;;;;;4814209;29;91944;-88
2021/04/13 15:10:30;;;;;;;6.13;5.53;;;12.80;46.70;;;;;;4816984;29;92039;-88
2021/04/13 15:12:56;;;;;;;8.82;7.28;;;12.30;48.20;;;;;;4815088;29;92482;-88
2021/04/13 15:15:23;;;;;;;6.28;5.65;;;12.00;48.20;;;;;;4823579;29;92832;-87
2021/04/13 15:17:50;;;;;;;7.15;6.55;;;11.90;51.70;;;;;;4812756;29;91987;-88
2021/04/13 15:20:21;;;;;;;6.95;6.28;;;11.70;50.10;;;;;;4810320;29;91954;-86
2021/04/13 15:22:48;;;;;;;6.78;6.18;;;11.10;51.70;;;;;;4826475;29;95717;-87
2021/04/13 15:25:15;;;;;;;5.32;4.72;;;11.40;50.60;;;;;;4812506;29;91996;-90
2021/04/13 15:27:43;;;;;;;5.72;4.72;;;11.40;51.40;;;;;;4813014;29;91886;-87
2021/04/13 15:30:12;;;;;;;6.68;5.13;;;11.30;51.80;;;;;;4809411;29;93155;-88
2021/04/13 15:32:39;;;;;;;6.18;5.00;;;11.30;52.40;;;;;;4808404;29;94604;-88
2021/04/13 15:35:34;;;;;;;8.10;7.30;;;11.30;53.30;;;;;;4809727;29;92852;-87
2021/04/13 15:38:07;;;;;;;6.03;5.60;;;11.70;54.60;;;;;;4816339;29;91904;-88
2021/04/13 15:40:38;;;;;;;5.28;4.43;;;11.80;52.40;;;;;;4806684;29;92072;-88
2021/04/13 15:43:04;;;;;;;6.45;5.88;;;;;;;;;;4809705;29;93407;-88
2021/04/13 15:45:35;;;;;;;4.63;4.22;;;11.40;52.10;;;;;;4804770;29;93398;-89
2021/04/13 15:48:08;;;;;;;6.18;4.97;;;11.30;53.10;;;;;;4803060;29;91318;-88
2021/04/13 15:50:34;;;;;;;5.57;5.03;;;11.10;54.10;;;;;;4814618;29;91841;-88
2021/04/13 15:53:00;;;;;;;7.40;6.20;;;10.40;59.80;;;;;;4811073;29;93524;-88
2021/04/13 15:55:26;;;;;;;5.57;4.53;;;10.40;57.80;;;;;;4792870;29;94042;-89
2021/04/13 15:57:51;;;;;;;6.68;5.30;;;10.20;58.90;;;;;;4810098;29;92145;-89
2021/04/13 16:00:18;;;;;;;8.98;5.72;;;10.20;57.50;;;;;;4814842;29;91963;-87
2021/04/13 16:02:44;;;;;;;6.07;5.38;;;9.70;58.00;;;;;;4811275;29;92100;-89
2021/04/13 16:05:10;;;;;;;6.00;4.93;;;9.70;58.80;;;;;;4815099;29;94100;-87
2021/04/13 16:07:36;;;;;;;5.65;5.18;;;;;;;;;;4824890;29;92035;-85
2021/04/13 16:10:03;;;;;;;6.40;5.80;;;9.50;60.00;;;;;;4813636;29;91477;-89
2021/04/13 16:12:29;;;;;;;6.10;5.18;;;9.60;58.00;;;;;;4808217;29;93983;-91
2021/04/13 16:14:55;;;;;;;6.80;6.10;;;;;;;;;;4786973;29;94071;-90
2021/04/13 16:17:22;;;;;;;6.32;5.35;;;10.30;58.80;;;;;;4803902;29;91900;-89
2021/04/13 16:19:47;;;;;;;7.28;6.10;;;9.10;63.50;;;;;;4812036;29;92937;-89
2021/04/13 16:22:15;;;;;;;8.18;6.70;;;;;;;;;;4795416;29;94107;-90
2021/04/13 16:24:41;;;;;;;7.03;6.30;;;;;;;;;;4812866;29;92138;-89
2021/04/13 16:27:07;;;;;;;6.95;6.25;;;;;;;;;;4812187;29;91904;-88
2021/04/13 16:29:33;;;;;;;6.82;5.10;;;8.10;69.80;;;;;;4802533;29;91943;-89
2021/04/13 16:32:15;;;;;;;9.75;7.45;;;6.90;87.30;;;;;;4813472;29;94267;-90
2021/04/13 16:34:42;;;;;;;9.35;6.28;;;6.90;87.50;;;;;;4794341;29;94004;-88